createdAt,value
2022-09-14T00:04:14.977Z,20.6
2022-09-14T00:10:07.598Z,21.1
2022-09-14T00:15:57.187Z,20
2022-09-14T00:21:58.742Z,21.6
2022-09-14T00:27:57.282Z,21.3
2022-09-14T00:33:50.976Z,21
2022-09-14T00:45:54.010Z,20.7
2022-09-14T00:51:45.975Z,19
2022-09-14T00:58:00.757Z,18.5
2022-09-14T01:04:07.724Z,18.9
2022-09-14T01:09:58.653Z,19.4
2022-09-14T01:15:53.022Z,21
2022-09-14T01:21:45.760Z,22.6
2022-09-14T01:27:56.565Z,22
2022-09-14T01:33:48.170Z,23
2022-09-14T01:39:39.924Z,22.8
2022-09-14T01:45:36.944Z,23.3
2022-09-14T01:51:30.745Z,23.1
2022-09-14T01:57:23.645Z,23.1
2022-09-14T02:03:17.691Z,24
2022-09-14T02:09:13.755Z,23
2022-09-14T02:15:10.221Z,20.3
2022-09-14T02:21:06.445Z,20.9
2022-09-14T02:26:58.063Z,21.6
2022-09-14T02:32:48.842Z,20.2
2022-09-14T02:38:40.149Z,21.6
2022-09-14T02:44:32.952Z,20.8
2022-09-14T02:50:30.537Z,22.8
2022-09-14T02:56:23.177Z,23.3
2022-09-14T03:02:16.569Z,25.2
2022-09-14T03:08:08.679Z,23.1
2022-09-14T03:14:01.999Z,23.8
2022-09-14T03:19:54.340Z,25.3
2022-09-14T03:25:46.481Z,22.4
2022-09-14T03:31:39.523Z,22.3
2022-09-14T03:37:29.288Z,21.3
2022-09-14T03:43:21.684Z,19.2
2022-09-14T03:49:12.871Z,17.3
2022-09-14T03:55:04.969Z,17.4
2022-09-14T04:00:56.971Z,15.8
2022-09-14T04:06:48.737Z,12.4
2022-09-14T04:12:41.165Z,9.9
2022-09-14T04:18:34.292Z,8.2
2022-09-14T04:24:35.766Z,8.1
2022-09-14T04:30:28.535Z,8.2
2022-09-14T04:36:23.109Z,7.8
2022-09-14T04:42:15.766Z,8.9
2022-09-14T04:48:12.985Z,8.8
2022-09-14T04:54:05.048Z,8.3
2022-09-14T04:59:58.836Z,7.4
2022-09-14T05:05:55.178Z,7.9
2022-09-14T05:11:46.797Z,8.2
2022-09-14T05:17:38.765Z,9.6
2022-09-14T05:23:31.283Z,9
2022-09-14T05:29:27.852Z,8.8
2022-09-14T05:35:18.538Z,7.8
2022-09-14T05:41:09.592Z,7.9
2022-09-14T05:47:02.554Z,8.4
2022-09-14T05:52:54.470Z,8.6
2022-09-14T06:05:25.349Z,8
2022-09-14T06:11:16.591Z,8.2
2022-09-14T06:17:20.149Z,8.1
2022-09-14T06:23:53.973Z,8.2
2022-09-14T06:30:22.767Z,9
2022-09-14T06:42:48.978Z,9.6
2022-09-14T06:48:45.621Z,9.7
2022-09-14T06:54:42.743Z,9.4
2022-09-14T07:00:38.089Z,9.1
2022-09-14T07:13:16.668Z,8.4
2022-09-14T07:25:34.329Z,8.3
2022-09-14T07:31:28.761Z,7.7
2022-09-14T07:37:20.841Z,7.5
2022-09-14T07:43:14.148Z,7.3
2022-09-14T07:49:06.493Z,9
2022-09-14T07:54:58.129Z,8
2022-09-14T08:00:49.426Z,7.1
2022-09-14T08:06:43.689Z,7.3
2022-09-14T08:12:36.235Z,6.7
2022-09-14T08:18:27.485Z,5.2
2022-09-14T08:24:17.466Z,5.1
2022-09-14T08:30:13.850Z,4
2022-09-14T08:36:06.697Z,4.5
2022-09-14T08:42:04.392Z,5
2022-09-14T08:48:06.834Z,4.9
2022-09-14T08:54:26.260Z,5.6
2022-09-14T09:00:41.446Z,5.2
2022-09-14T09:06:51.156Z,5.2
2022-09-14T09:12:42.426Z,4.5
2022-09-14T09:18:33.199Z,5.2
2022-09-14T09:24:24.958Z,5.2
2022-09-14T09:30:22.323Z,4.8
2022-09-14T09:36:12.995Z,5.4
2022-09-14T09:42:14.419Z,5
2022-09-14T09:48:15.119Z,4.7
2022-09-14T10:14:35.566Z,4.3
2022-09-14T10:27:44.331Z,16.9
2022-09-14T10:47:20.946Z,2.9
2022-09-14T10:53:10.898Z,4.4
2022-09-14T10:59:14.867Z,4.8
2022-09-14T11:25:41.745Z,12.7
2022-09-14T11:38:15.531Z,21.8
2022-09-14T11:51:53.651Z,26.4
2022-09-14T12:10:57.869Z,23.7
2022-09-14T12:17:39.182Z,29.5
2022-09-14T12:30:49.223Z,38.9
2022-09-14T12:36:57.903Z,39.7
2022-09-14T12:49:53.479Z,35.7
2022-09-14T12:55:48.566Z,33.7
2022-09-14T13:01:40.940Z,34.6
2022-09-14T13:07:34.700Z,36.2
2022-09-14T13:14:15.370Z,34.9
2022-09-14T13:20:20.317Z,35.4
2022-09-14T13:26:15.253Z,37.4
2022-09-14T13:32:24.762Z,35.6
2022-09-14T13:38:13.901Z,39.5
2022-09-14T13:44:13.703Z,43.8
2022-09-14T13:50:06.345Z,48.4
2022-09-14T13:56:03.251Z,53.1
2022-09-14T14:01:57.023Z,54.8
2022-09-14T14:07:50.455Z,51.9
2022-09-14T14:13:50.693Z,49.9
2022-09-14T14:19:59.105Z,50.9
2022-09-14T14:25:54.514Z,45.4
2022-09-14T14:32:05.516Z,44.4
2022-09-14T14:38:02.626Z,45.4
2022-09-14T14:44:20.574Z,43
2022-09-14T14:50:34.770Z,37.2
2022-09-14T14:56:28.347Z,40.3
2022-09-14T15:02:34.509Z,39.3
2022-09-14T15:08:43.677Z,27.2
2022-09-14T15:41:02.237Z,21.6
2022-09-14T15:47:23.275Z,24.3
2022-09-14T15:53:44.607Z,22.8
2022-09-14T16:01:40.632Z,25.4
2022-09-14T16:07:29.785Z,22.2
2022-09-14T16:13:35.102Z,19.8
2022-09-14T16:19:26.007Z,15.4
2022-09-14T16:25:18.022Z,15.1
2022-09-14T16:37:05.999Z,13
2022-09-14T16:42:56.761Z,12.2
2022-09-14T16:55:39.512Z,15.7
2022-09-14T17:02:03.756Z,18
2022-09-14T17:08:10.839Z,20
2022-09-14T17:14:01.140Z,22.3
2022-09-14T17:20:24.809Z,30.9
2022-09-14T17:26:17.407Z,31.8
2022-09-14T17:32:25.560Z,28.2
2022-09-14T17:38:54.633Z,28.9
2022-09-14T17:44:43.192Z,30.7
2022-09-14T17:50:34.591Z,32
2022-09-14T17:56:26.061Z,31.6
2022-09-14T18:02:17.926Z,32.5
2022-09-14T18:08:08.243Z,33.7
2022-09-14T18:26:55.777Z,46.3
2022-09-14T18:57:35.860Z,43.6
2022-09-14T19:03:54.072Z,42.2
2022-09-14T19:10:10.969Z,44.4
2022-09-14T19:16:15.124Z,41.4
2022-09-14T19:53:27.597Z,50.9
2022-09-14T19:59:19.899Z,48.3
2022-09-14T20:39:33.617Z,50.6
2022-09-14T20:45:51.153Z,51.6
2022-09-14T21:11:27.908Z,51.4
2022-09-14T21:17:18.254Z,53.4
2022-09-14T21:23:09.873Z,56.8
2022-09-14T21:29:06.097Z,54.9
2022-09-14T21:35:02.502Z,55.6
2022-09-14T21:40:53.683Z,52.3
2022-09-14T21:46:49.318Z,56.3
2022-09-14T21:52:54.696Z,54.6
2022-09-14T21:58:48.954Z,46.6
2022-09-14T22:04:52.506Z,42.9
2022-09-14T22:10:50.288Z,46
2022-09-14T22:17:01.414Z,42
2022-09-14T22:23:14.545Z,43
2022-09-14T22:29:20.351Z,44.9
2022-09-14T22:35:43.494Z,48.6
2022-09-14T22:48:20.795Z,46.3
2022-09-14T23:07:14.797Z,49.2
2022-09-14T23:13:05.507Z,49.5
2022-09-14T23:18:56.781Z,50.1
2022-09-14T23:24:47.383Z,48.4
2022-09-14T23:30:37.554Z,47.7
2022-09-14T23:36:28.083Z,48.2
2022-09-14T23:42:19.519Z,48.7
2022-09-14T23:48:09.034Z,49.6
2022-09-14T23:53:57.248Z,50.2
2022-09-14T23:59:47.771Z,50.5
